createdAt,value
2018-06-05T00:00:05.153Z,7.50
2018-06-05T00:02:34.724Z,7.23
2018-06-05T00:05:04.480Z,8.63
2018-06-05T00:07:34.352Z,9.00
2018-06-05T00:10:03.140Z,8.00
2018-06-05T00:12:31.936Z,8.00
2018-06-05T00:15:00.770Z,10.83
2018-06-05T00:17:29.604Z,8.37
2018-06-05T00:19:58.432Z,8.63
2018-06-05T00:22:27.184Z,8.70
2018-06-05T00:24:55.992Z,8.60
2018-06-05T00:27:24.534Z,9.23
2018-06-05T00:29:53.228Z,9.13
2018-06-05T00:32:23.957Z,9.83
2018-06-05T00:34:52.759Z,8.37
2018-06-05T00:37:21.540Z,12.53
2018-06-05T00:39:50.688Z,9.17
2018-06-05T00:42:19.543Z,9.30
2018-06-05T00:44:48.327Z,8.43
2018-06-05T00:47:17.127Z,9.07
2018-06-05T00:49:46.795Z,9.57
2018-06-05T00:52:15.584Z,9.40
2018-06-05T00:54:44.404Z,9.73
2018-06-05T00:57:13.172Z,10.47
2018-06-05T00:59:41.975Z,9.10
2018-06-05T01:02:10.773Z,10.60
2018-06-05T01:04:39.535Z,10.73
2018-06-05T01:07:08.343Z,9.27
2018-06-05T01:09:37.107Z,9.80
2018-06-05T01:12:06.091Z,8.90
2018-06-05T01:14:34.899Z,8.97
2018-06-05T01:17:03.671Z,9.20
2018-06-05T01:19:32.417Z,10.13
2018-06-05T01:22:01.275Z,9.97
2018-06-05T01:24:30.066Z,8.77
2018-06-05T01:26:58.863Z,9.80
2018-06-05T01:29:27.627Z,11.43
2018-06-05T01:31:56.667Z,10.30
2018-06-05T01:34:25.929Z,9.97
2018-06-05T01:36:54.715Z,11.00
2018-06-05T01:39:23.499Z,11.23
2018-06-05T01:41:52.271Z,10.57
2018-06-05T01:44:21.076Z,10.27
2018-06-05T01:46:49.871Z,11.30
2018-06-05T01:49:19.018Z,9.93
2018-06-05T01:51:47.836Z,10.33
2018-06-05T01:54:16.627Z,11.50
2018-06-05T01:56:45.407Z,10.30
2018-06-05T01:59:14.211Z,11.13
2018-06-05T02:01:44.032Z,11.70
2018-06-05T02:04:12.787Z,10.40
2018-06-05T02:06:41.583Z,10.47
2018-06-05T02:09:10.431Z,10.13
2018-06-05T02:11:39.259Z,11.67
2018-06-05T02:14:08.044Z,10.10
2018-06-05T02:16:36.839Z,10.67
2018-06-05T02:19:05.628Z,9.67
2018-06-05T02:21:34.401Z,10.30
2018-06-05T02:24:03.228Z,10.67
2018-06-05T02:26:31.979Z,10.57
2018-06-05T02:29:00.775Z,10.87
2018-06-05T02:31:29.559Z,9.80
2018-06-05T02:33:58.363Z,13.07
2018-06-05T02:36:27.425Z,10.10
2018-06-05T02:38:56.240Z,12.03
2018-06-05T02:41:25.023Z,10.50
2018-06-05T02:43:53.811Z,10.20
2018-06-05T02:46:22.606Z,10.67
2018-06-05T02:48:51.397Z,10.27
2018-06-05T02:51:20.184Z,10.50
2018-06-05T02:53:48.980Z,10.10
2018-06-05T02:56:18.075Z,10.17
2018-06-05T02:58:46.831Z,11.67
2018-06-05T03:01:15.651Z,10.57
2018-06-05T03:03:45.431Z,10.97
2018-06-05T03:06:14.227Z,9.53
2018-06-05T03:08:43.008Z,10.03
2018-06-05T03:11:12.067Z,11.77
2018-06-05T03:13:40.903Z,10.67
2018-06-05T03:16:09.712Z,10.60
2018-06-05T03:18:38.484Z,10.00
2018-06-05T03:21:07.339Z,10.43
2018-06-05T03:23:36.151Z,10.90
2018-06-05T03:26:04.936Z,11.07
2018-06-05T03:28:33.730Z,12.60
2018-06-05T03:31:02.532Z,10.30
2018-06-05T03:33:31.943Z,11.30
2018-06-05T03:36:00.593Z,10.70
2018-06-05T03:38:29.304Z,11.37
2018-06-05T03:40:58.067Z,9.77
2018-06-05T03:43:26.895Z,11.43
2018-06-05T03:45:55.655Z,10.60
2018-06-05T03:48:24.447Z,11.63
2018-06-05T03:50:53.243Z,10.50
2018-06-05T03:53:22.024Z,9.63
2018-06-05T03:55:50.778Z,11.00
2018-06-05T03:58:19.596Z,10.80
2018-06-05T04:00:48.403Z,11.13
2018-06-05T04:03:18.759Z,10.93
2018-06-05T04:05:47.639Z,10.90
2018-06-05T04:08:16.471Z,12.37
2018-06-05T04:10:45.300Z,10.60
2018-06-05T04:13:15.175Z,10.87
2018-06-05T04:15:46.051Z,10.13
2018-06-05T04:18:14.707Z,10.63
2018-06-05T04:20:43.419Z,10.03
2018-06-05T04:23:12.191Z,10.40
2018-06-05T04:25:40.948Z,9.80
2018-06-05T04:28:09.766Z,11.27
2018-06-05T04:30:38.535Z,11.53
2018-06-05T04:33:07.375Z,11.83
2018-06-05T04:35:36.131Z,10.47
2018-06-05T04:38:04.931Z,11.80
2018-06-05T04:40:34.711Z,11.37
2018-06-05T04:43:03.628Z,9.60
2018-06-05T04:45:32.383Z,10.27
2018-06-05T04:48:01.184Z,11.40
2018-06-05T04:50:29.974Z,10.17
2018-06-05T04:52:58.775Z,10.73
2018-06-05T04:55:27.551Z,9.83
2018-06-05T04:57:56.343Z,10.17
2018-06-05T05:00:25.134Z,11.50
2018-06-05T05:02:53.918Z,9.57
2018-06-05T05:05:22.695Z,11.10
2018-06-05T05:07:51.479Z,9.93
2018-06-05T05:10:20.266Z,9.57
2018-06-05T05:12:49.078Z,9.33
2018-06-05T05:15:17.850Z,11.37
2018-06-05T05:17:46.634Z,9.83
2018-06-05T05:20:15.411Z,10.07
2018-06-05T05:22:44.215Z,11.27
2018-06-05T05:25:12.991Z,10.43
2018-06-05T05:27:41.778Z,10.97
2018-06-05T05:30:11.601Z,9.97
2018-06-05T05:32:40.403Z,10.80
2018-06-05T05:35:09.187Z,11.47
2018-06-05T05:37:37.986Z,11.13
2018-06-05T05:40:06.747Z,10.43
2018-06-05T05:42:35.554Z,10.73
2018-06-05T05:45:04.355Z,10.37
2018-06-05T05:47:33.103Z,10.60
2018-06-05T05:50:01.928Z,10.83
2018-06-05T05:52:31.091Z,11.17
2018-06-05T05:55:00.103Z,11.13
2018-06-05T05:57:28.883Z,12.00
2018-06-05T05:59:57.667Z,11.67
2018-06-05T06:02:26.474Z,10.30
2018-06-05T06:04:55.251Z,10.90
2018-06-05T06:07:24.055Z,10.47
2018-06-05T06:09:52.822Z,9.93
2018-06-05T06:12:21.600Z,10.53
2018-06-05T06:14:50.347Z,10.47
2018-06-05T06:17:19.187Z,9.83
2018-06-05T06:19:47.985Z,11.30
2018-06-05T06:22:16.510Z,10.10
2018-06-05T06:24:45.191Z,10.53
2018-06-05T06:27:14.067Z,15.03
2018-06-05T06:29:42.858Z,11.07
2018-06-05T06:32:11.610Z,12.00
2018-06-05T06:34:40.335Z,14.50
2018-06-05T06:37:09.071Z,10.23
2018-06-05T06:39:37.898Z,15.30
2018-06-05T06:42:06.673Z,13.90
2018-06-05T06:44:35.443Z,12.07
2018-06-05T06:47:04.273Z,12.60
2018-06-05T06:49:33.020Z,9.90
2018-06-05T06:52:01.814Z,9.40
2018-06-05T06:54:30.647Z,8.70
2018-06-05T06:56:59.479Z,9.60
2018-06-05T06:59:28.215Z,9.30
2018-06-05T07:01:57.074Z,10.07
2018-06-05T07:04:25.834Z,10.60
2018-06-05T07:06:54.631Z,8.87
2018-06-05T07:09:23.415Z,11.53
2018-06-05T07:11:53.278Z,8.93
2018-06-05T07:14:22.019Z,8.33
2018-06-05T07:16:50.755Z,8.17
2018-06-05T07:19:19.582Z,8.50
2018-06-05T07:21:48.427Z,8.40
2018-06-05T07:24:17.263Z,8.13
2018-06-05T07:26:46.068Z,7.77
2018-06-05T07:29:14.867Z,7.70
2018-06-05T07:31:43.619Z,7.53
2018-06-05T07:34:12.395Z,7.60
2018-06-05T07:36:41.207Z,8.97
2018-06-05T07:39:09.995Z,7.67
2018-06-05T07:41:38.783Z,7.27
2018-06-05T07:44:07.446Z,7.57
2018-06-05T07:46:36.103Z,7.37
2018-06-05T07:49:04.963Z,8.23
2018-06-05T07:51:33.763Z,8.10
2018-06-05T07:54:02.311Z,6.87
2018-06-05T07:56:31.003Z,6.97
2018-06-05T07:58:59.558Z,7.90
2018-06-05T08:01:28.283Z,7.33
2018-06-05T08:03:56.938Z,8.53
2018-06-05T08:06:25.600Z,7.13
2018-06-05T08:08:54.422Z,7.10
2018-06-05T08:11:23.247Z,7.23
2018-06-05T08:13:51.982Z,8.20
2018-06-05T08:16:20.810Z,6.70
2018-06-05T08:18:49.603Z,7.20
2018-06-05T08:21:18.401Z,7.30
2018-06-05T08:23:47.142Z,8.43
2018-06-05T08:26:15.942Z,6.73
2018-06-05T08:28:45.763Z,7.03
2018-06-05T08:31:14.607Z,6.80
2018-06-05T08:33:43.424Z,6.70
2018-06-05T08:36:12.199Z,6.90
2018-06-05T08:38:40.910Z,6.80
2018-06-05T08:41:09.714Z,6.90
2018-06-05T08:43:38.475Z,6.60
2018-06-05T08:46:07.274Z,6.10
2018-06-05T08:48:35.995Z,6.10
2018-06-05T08:51:05.787Z,6.97
2018-06-05T08:53:34.538Z,7.00
2018-06-05T08:56:03.388Z,6.30
2018-06-05T08:58:32.129Z,6.30
2018-06-05T09:01:00.903Z,7.20
2018-06-05T09:03:29.698Z,6.10
2018-06-05T09:05:58.483Z,6.03
2018-06-05T09:08:27.262Z,6.10
2018-06-05T09:10:56.082Z,6.03
2018-06-05T09:13:24.846Z,6.17
2018-06-05T09:15:53.558Z,8.10
2018-06-05T09:18:22.310Z,5.80
2018-06-05T09:20:51.026Z,6.13
2018-06-05T09:23:19.803Z,5.67
2018-06-05T09:25:48.587Z,6.00
2018-06-05T09:28:17.388Z,6.40
2018-06-05T09:30:46.096Z,5.37
2018-06-05T09:33:14.859Z,6.13
2018-06-05T09:35:43.643Z,5.83
2018-06-05T09:38:12.470Z,11.13
2018-06-05T09:40:41.216Z,5.30
2018-06-05T09:43:09.974Z,5.70
2018-06-05T09:45:38.826Z,5.83
2018-06-05T09:48:07.354Z,7.30
2018-06-05T09:50:36.034Z,7.83
2018-06-05T09:53:04.847Z,4.80
2018-06-05T09:55:33.626Z,5.43
2018-06-05T09:58:02.458Z,5.67
2018-06-05T10:00:36.511Z,5.30
2018-06-05T10:03:05.318Z,6.20
2018-06-05T10:05:34.123Z,7.33
2018-06-05T10:08:03.919Z,4.90
2018-06-05T10:10:32.754Z,5.00
2018-06-05T10:13:01.595Z,5.17
2018-06-05T10:15:30.410Z,4.90
2018-06-05T10:17:59.170Z,7.90
2018-06-05T10:20:27.979Z,5.03
2018-06-05T10:22:57.034Z,4.33
2018-06-05T10:25:25.834Z,4.63
2018-06-05T10:27:54.675Z,5.20
2018-06-05T10:30:23.438Z,4.33
2018-06-05T10:32:52.206Z,4.80
2018-06-05T10:35:20.979Z,4.67
2018-06-05T10:37:49.782Z,4.27
2018-06-05T10:40:18.589Z,4.50
2018-06-05T10:42:47.358Z,5.13
2018-06-05T10:45:16.146Z,4.20
2018-06-05T10:47:44.958Z,4.40
2018-06-05T10:50:13.731Z,4.70
2018-06-05T10:52:42.498Z,3.60
2018-06-05T10:55:11.250Z,4.23
2018-06-05T10:57:40.075Z,4.80
2018-06-05T11:00:08.874Z,4.93
2018-06-05T11:02:37.662Z,3.80
2018-06-05T11:05:06.482Z,3.77
2018-06-05T11:07:35.023Z,3.93
2018-06-05T11:10:04.530Z,4.23
2018-06-05T11:12:33.190Z,3.73
2018-06-05T11:15:01.935Z,3.60
2018-06-05T11:17:30.690Z,3.50
2018-06-05T11:19:59.266Z,4.00
2018-06-05T11:22:27.961Z,4.20
2018-06-05T11:24:56.758Z,3.60
2018-06-05T11:27:25.532Z,4.63
2018-06-05T11:29:54.322Z,3.60
2018-06-05T11:32:23.110Z,4.00
2018-06-05T11:34:51.894Z,3.90
2018-06-05T11:37:20.686Z,4.60
2018-06-05T11:39:50.173Z,4.00
2018-06-05T11:42:18.874Z,4.17
2018-06-05T11:44:47.654Z,3.03
2018-06-05T11:47:16.250Z,3.63
2018-06-05T11:49:45.502Z,3.83
2018-06-05T11:52:14.261Z,4.43
2018-06-05T11:54:42.753Z,3.70
2018-06-05T11:57:11.494Z,4.40
2018-06-05T11:59:40.277Z,4.40
2018-06-05T12:02:09.010Z,3.90
2018-06-05T12:04:37.550Z,4.20
2018-06-05T12:07:06.257Z,4.20
2018-06-05T12:09:35.038Z,3.90
2018-06-05T12:12:03.828Z,7.50
2018-06-05T12:14:32.602Z,3.77
2018-06-05T12:17:01.391Z,4.97
2018-06-05T12:19:30.181Z,3.80
2018-06-05T12:21:58.897Z,3.20
2018-06-05T12:24:27.441Z,4.70
2018-06-05T12:26:56.138Z,3.80
2018-06-05T12:29:24.913Z,4.20
2018-06-05T12:31:53.723Z,5.20
2018-06-05T12:34:22.501Z,3.60
2018-06-05T12:36:51.271Z,4.90
2018-06-05T12:39:20.074Z,4.00
2018-06-05T12:41:48.934Z,4.70
2018-06-05T12:44:17.437Z,3.53
2018-06-05T12:46:46.133Z,5.93
2018-06-05T12:49:14.921Z,4.30
2018-06-05T12:51:44.778Z,6.13
2018-06-05T12:54:13.529Z,5.60
2018-06-05T12:56:42.305Z,4.17
2018-06-05T12:59:11.114Z,4.20
2018-06-05T13:01:39.893Z,7.27
2018-06-05T13:04:08.698Z,10.30
2018-06-05T13:06:37.233Z,11.33
2018-06-05T13:09:07.649Z,4.67
2018-06-05T13:11:36.457Z,4.27
2018-06-05T13:14:05.253Z,7.40
2018-06-05T13:16:34.085Z,4.13
2018-06-05T13:19:02.841Z,4.97
2018-06-05T13:21:31.633Z,5.10
2018-06-05T13:24:00.409Z,4.60
2018-06-05T13:26:29.205Z,4.53
2018-06-05T13:28:57.937Z,4.63
2018-06-05T13:31:26.777Z,4.13
2018-06-05T13:33:55.537Z,4.23
2018-06-05T13:36:24.343Z,5.23
2018-06-05T13:38:53.125Z,9.13
2018-06-05T13:41:21.925Z,6.07
2018-06-05T13:43:50.708Z,5.00
2018-06-05T13:46:19.505Z,4.87
2018-06-05T13:48:48.863Z,4.70
2018-06-05T13:51:17.593Z,7.70
2018-06-05T13:53:46.373Z,5.03
2018-06-05T13:56:15.445Z,7.20
2018-06-05T13:58:44.257Z,5.20
2018-06-05T14:01:13.053Z,4.40
2018-06-05T14:03:41.841Z,4.60
2018-06-05T14:06:10.805Z,4.80
2018-06-05T14:08:39.633Z,5.40
2018-06-05T14:11:08.400Z,4.60
2018-06-05T14:13:37.177Z,4.60
2018-06-05T14:16:05.977Z,3.77
2018-06-05T14:18:34.805Z,9.30
2018-06-05T14:21:03.541Z,3.43
2018-06-05T14:23:32.317Z,9.50
2018-06-05T14:26:02.141Z,5.90
2018-06-05T14:28:30.873Z,4.33
2018-06-05T14:30:59.609Z,6.70
2018-06-05T14:33:28.413Z,3.90
2018-06-05T14:35:57.193Z,4.23
2018-06-05T14:38:25.981Z,7.33
2018-06-05T14:40:54.789Z,6.23
2018-06-05T14:43:23.569Z,7.53
2018-06-05T14:45:52.358Z,4.10
2018-06-05T14:48:21.117Z,7.90
2018-06-05T14:50:49.935Z,4.03
2018-06-05T14:53:18.737Z,3.97
2018-06-05T14:55:47.501Z,3.87
2018-06-05T14:58:16.246Z,3.80
2018-06-05T15:00:45.997Z,3.50
2018-06-05T15:03:14.805Z,3.53
2018-06-05T15:05:43.553Z,4.37
2018-06-05T15:08:12.421Z,4.23
2018-06-05T15:10:41.273Z,4.40
2018-06-05T15:13:10.080Z,3.13
2018-06-05T15:15:38.821Z,4.00
2018-06-05T15:18:07.605Z,6.70
2018-06-05T15:20:36.393Z,3.40
2018-06-05T15:23:05.173Z,3.87
2018-06-05T15:25:33.997Z,3.80
2018-06-05T15:28:02.773Z,4.03
2018-06-05T15:30:31.533Z,4.53
2018-06-05T15:33:00.349Z,5.60
2018-06-05T15:35:30.135Z,3.50
2018-06-05T15:37:58.869Z,3.90
2018-06-05T15:40:27.421Z,4.43
2018-06-05T15:42:56.095Z,3.73
2018-06-05T15:45:24.917Z,4.17
2018-06-05T15:47:53.645Z,4.03
2018-06-05T15:50:22.421Z,4.33
2018-06-05T15:52:51.161Z,7.80
2018-06-05T15:55:21.625Z,3.90
2018-06-05T15:57:50.369Z,4.23
2018-06-05T16:00:19.161Z,3.60
2018-06-05T16:02:47.929Z,4.20
2018-06-05T16:05:16.669Z,6.20
2018-06-05T16:07:45.433Z,4.00
2018-06-05T16:10:14.201Z,4.70
2018-06-05T16:12:42.994Z,4.00
2018-06-05T16:15:11.729Z,4.27
2018-06-05T16:17:40.564Z,3.90
2018-06-05T16:20:09.353Z,4.23
2018-06-05T16:22:38.133Z,4.03
2018-06-05T16:25:06.949Z,4.93
2018-06-05T16:27:35.717Z,4.23
2018-06-05T16:30:05.268Z,4.30
2018-06-05T16:32:34.001Z,3.70
2018-06-05T16:35:02.797Z,3.30
2018-06-05T16:37:31.515Z,4.53
2018-06-05T16:40:00.283Z,3.93
2018-06-05T16:42:29.053Z,4.30
2018-06-05T16:44:57.856Z,4.20
2018-06-05T16:47:26.644Z,3.40
2018-06-05T16:49:55.413Z,4.20
2018-06-05T16:52:24.193Z,3.60
2018-06-05T16:54:53.013Z,4.50
2018-06-05T16:57:21.792Z,4.87
2018-06-05T16:59:50.587Z,4.33
2018-06-05T17:02:19.381Z,4.07
2018-06-05T17:04:48.222Z,5.00
2018-06-05T17:07:16.932Z,4.90
2018-06-05T17:09:45.640Z,4.63
2018-06-05T17:12:14.408Z,4.30
2018-06-05T17:14:43.132Z,4.50
2018-06-05T17:17:11.628Z,6.63
2018-06-05T17:19:40.277Z,5.80
2018-06-05T17:22:09.040Z,4.63
2018-06-05T17:24:37.785Z,4.70
2018-06-05T17:27:06.622Z,4.97
2018-06-05T17:29:35.408Z,4.53
2018-06-05T17:32:03.988Z,6.57
2018-06-05T17:34:32.680Z,6.23
2018-06-05T17:37:01.462Z,5.00
2018-06-05T17:39:30.264Z,8.30
2018-06-05T17:41:59.036Z,5.00
2018-06-05T17:44:27.823Z,5.43
2018-06-05T17:46:56.572Z,7.10
2018-06-05T17:49:25.420Z,5.33
2018-06-05T17:51:54.152Z,5.87
2018-06-05T17:54:22.964Z,9.43
2018-06-05T17:56:51.764Z,5.37
2018-06-05T17:59:20.548Z,6.20
2018-06-05T18:01:49.360Z,5.00
2018-06-05T18:04:18.180Z,7.10
2018-06-05T18:06:46.932Z,14.90
2018-06-05T18:09:15.704Z,6.57
2018-06-05T18:11:44.417Z,6.30
2018-06-05T18:14:13.180Z,8.30
2018-06-05T18:16:41.960Z,8.53
2018-06-05T18:19:10.748Z,6.20
2018-06-05T18:21:39.544Z,7.40
2018-06-05T18:24:08.360Z,6.20
2018-06-05T18:26:37.156Z,6.40
2018-06-05T18:29:05.960Z,10.00
2018-06-05T18:31:34.691Z,6.83
2018-06-05T18:34:03.440Z,9.83
2018-06-05T18:36:32.276Z,5.97
2018-06-05T18:39:01.108Z,7.00
2018-06-05T18:41:29.848Z,6.97
2018-06-05T18:43:58.644Z,7.23
2018-06-05T18:46:27.407Z,6.83
2018-06-05T18:48:56.216Z,7.90
2018-06-05T18:51:25.044Z,7.73
2018-06-05T18:53:53.783Z,6.93
2018-06-05T18:56:22.568Z,6.47
2018-06-05T18:58:51.359Z,7.90
2018-06-05T19:01:20.860Z,7.43
2018-06-05T19:03:49.575Z,8.27
2018-06-05T19:06:18.348Z,8.70
2018-06-05T19:08:47.152Z,6.80
2018-06-05T19:11:15.920Z,8.97
2018-06-05T19:13:44.447Z,8.63
2018-06-05T19:16:13.083Z,9.00
2018-06-05T19:18:41.883Z,10.60
2018-06-05T19:21:11.603Z,16.17
2018-06-05T19:23:40.347Z,8.63
2018-06-05T19:26:09.099Z,16.23
2018-06-05T19:28:37.859Z,11.10
2018-06-05T19:31:06.691Z,9.97
2018-06-05T19:33:35.495Z,11.60
2018-06-05T19:36:04.295Z,11.00
2018-06-05T19:38:33.048Z,10.60
2018-06-05T19:41:01.887Z,13.43
2018-06-05T19:43:30.671Z,12.60
2018-06-05T19:45:59.471Z,12.23
2018-06-05T19:48:28.266Z,9.67
2018-06-05T19:50:57.027Z,11.93
2018-06-05T19:53:25.851Z,14.10
2018-06-05T19:55:54.622Z,11.90
2018-06-05T19:58:23.459Z,12.77
2018-06-05T20:00:52.329Z,14.20
2018-06-05T20:03:20.920Z,16.60
2018-06-05T20:05:49.719Z,13.93
2018-06-05T20:08:18.575Z,13.30
2018-06-05T20:10:47.383Z,12.37
2018-06-05T20:13:16.263Z,14.93
2018-06-05T20:15:45.063Z,19.10
2018-06-05T20:18:13.955Z,12.27
2018-06-05T20:20:42.883Z,13.83
2018-06-05T20:23:11.728Z,16.30
2018-06-05T20:25:40.564Z,14.60
2018-06-05T20:28:09.375Z,19.60
2018-06-05T20:30:38.185Z,13.90
2018-06-05T20:33:06.999Z,16.00
2018-06-05T20:35:35.867Z,16.03
2018-06-05T20:38:04.719Z,17.40
2018-06-05T20:40:34.587Z,17.83
2018-06-05T20:43:03.423Z,19.93
2018-06-05T20:45:33.299Z,14.67
2018-06-05T20:48:02.592Z,18.83
2018-06-05T20:50:31.607Z,22.70
2018-06-05T20:53:00.477Z,19.50
2018-06-05T20:55:29.235Z,21.97
2018-06-05T20:57:58.007Z,21.07
2018-06-05T21:00:26.815Z,20.97
2018-06-05T21:02:55.621Z,19.93
2018-06-05T21:05:24.519Z,21.70
2018-06-05T21:07:53.373Z,18.47
2018-06-05T21:10:22.219Z,25.20
2018-06-05T21:12:51.027Z,23.70
2018-06-05T21:15:20.863Z,20.60
2018-06-05T21:17:49.660Z,21.27
2018-06-05T21:20:18.515Z,21.90
2018-06-05T21:22:47.327Z,24.93
2018-06-05T21:25:16.219Z,27.80
2018-06-05T21:27:45.705Z,20.70
2018-06-05T21:30:14.574Z,21.27
2018-06-05T21:32:43.399Z,20.03
2018-06-05T21:35:13.167Z,22.67
2018-06-05T21:37:42.009Z,24.97
2018-06-05T21:40:11.175Z,27.13
2018-06-05T21:42:39.991Z,23.50
2018-06-05T21:45:09.075Z,20.60
2018-06-05T21:47:38.263Z,25.20
2018-06-05T21:50:07.043Z,26.33
2018-06-05T21:52:35.786Z,23.83
2018-06-05T21:55:05.571Z,22.97
2018-06-05T21:57:34.376Z,23.10
2018-06-05T22:00:03.267Z,22.50
2018-06-05T22:02:32.063Z,26.43
2018-06-05T22:05:00.843Z,24.97
2018-06-05T22:07:29.739Z,23.80
2018-06-05T22:09:58.607Z,22.10
2018-06-05T22:12:28.415Z,25.00
2018-06-05T22:14:58.247Z,24.90
2018-06-05T22:17:27.154Z,26.60
2018-06-05T22:19:56.055Z,24.00
2018-06-05T22:22:25.711Z,23.90
2018-06-05T22:24:54.491Z,21.50
2018-06-05T22:27:23.267Z,23.77
2018-06-05T22:29:52.063Z,21.70
2018-06-05T22:32:20.863Z,25.10
2018-06-05T22:34:49.686Z,21.90
2018-06-05T22:37:18.575Z,21.30
2018-06-05T22:39:47.439Z,23.07
2018-06-05T22:42:16.039Z,21.60
2018-06-05T22:44:44.835Z,23.63
2018-06-05T22:47:13.619Z,31.70
2018-06-05T22:49:42.523Z,17.07
2018-06-05T22:52:11.395Z,23.23
2018-06-05T22:54:40.155Z,23.23
2018-06-05T22:57:08.743Z,22.87
2018-06-05T22:59:37.439Z,22.80
2018-06-05T23:02:06.251Z,24.33
2018-06-05T23:04:35.127Z,29.93
2018-06-05T23:07:03.675Z,22.80
2018-06-05T23:09:32.150Z,28.37
2018-06-05T23:12:00.827Z,23.50
2018-06-05T23:14:29.679Z,27.17
2018-06-05T23:16:58.563Z,29.53
2018-06-05T23:19:27.439Z,25.63
2018-06-05T23:21:56.291Z,28.17
2018-06-05T23:24:25.003Z,27.37
2018-06-05T23:26:53.767Z,23.50
2018-06-05T23:29:22.563Z,28.47
2018-06-05T23:31:51.359Z,27.63
2018-06-05T23:34:20.203Z,30.93
2018-06-05T23:36:49.071Z,29.93
2018-06-05T23:39:17.943Z,33.03
2018-06-05T23:41:46.499Z,29.20
2018-06-05T23:44:15.239Z,30.47
2018-06-05T23:46:44.122Z,30.20
2018-06-05T23:49:12.905Z,36.77
2018-06-05T23:51:41.798Z,30.37
2018-06-05T23:54:10.683Z,41.83
2018-06-05T23:56:39.535Z,35.07
2018-06-05T23:59:08.383Z,30.73
